Dmitry Donskoy — ER2630 — position and weather

sailwx.info

Track history (hours):
 
Tides and Currents Weather Stations Pressure Air Temp Water Temp Dewpoint Dewpoint Depression Visibility Wind Speed Wind Dir Waves Ship Positions

Dmitry Donskoy

Last reported at 2018-Apr-11 23:06 UTC. Time now 2018-Apr-20 03:01 UTC.
Position N 45°26' E 036°42'.
Warning: this ship's position is 8 days out of date.

Length 138 m; draft 3.8 m.

Type: Cargo ship. MMSI: 214182630.

Date/timePositionNaut miles runAvg speedWind from/ knotsBaromVisibWave heightAir tempDewpointWater temp
2018-Apr-11 23:06N 45°26' E 036°42'1 6.7
2018-Apr-11 23:01N 45°26' E 036°42'3 6.7
2018-Apr-11 22:30N 45°23' E 036°40'3 6.4
2018-Apr-11 22:01N 45°21' E 036°37'4 7.6
2018-Apr-11 21:30N 45°19' E 036°32'4 6.5
2018-Apr-11 20:57N 45°16' E 036°29'3 5.8
2018-Apr-11 20:30N 45°14' E 036°29'2 3.8
2018-Apr-11 20:00N 45°12' E 036°30'1 1.3
2018-Apr-11 19:28N 45°11' E 036°31'0 0.0
2018-Apr-11 17:13N 45°11' E 036°31'0 0.1
2018-Apr-11 16:55N 45°11' E 036°31'0 0.1
2018-Apr-11 15:37N 45°11' E 036°31'0 0.0
2018-Apr-11 15:16N 45°11' E 036°31'0 0.0
2018-Apr-11 14:55N 45°11' E 036°31'0 0.0
2018-Apr-11 14:28N 45°11' E 036°31'0 0.0
2018-Apr-11 13:58N 45°11' E 036°31'0 0.0
2018-Apr-11 13:25N 45°11' E 036°31'0 0.0
2018-Apr-11 12:58N 45°11' E 036°31'0 0.0
2018-Apr-11 12:25N 45°11' E 036°31'0 0.0
2018-Apr-11 07:22N 45°11' E 036°31'16 6.3
2018-Apr-11 04:52N 44°56' E 036°32'  
Track history (hours):
 
Tides and Currents Weather Stations Pressure Air Temp Water Temp Dewpoint Dewpoint Depression Visibility Wind Speed Wind Dir Waves Ship Positions

Dmitry Donskoy

Last reported at 2018-Apr-11 23:06 UTC. Time now 2018-Apr-20 03:01 UTC.
Position N 45°26' E 036°42'.
Warning: this ship's position is 8 days out of date.

Length 138 m; draft 3.8 m.

Type: Cargo ship. MMSI: 214182630.

Date/timePositionNaut miles runAvg speedWind from/ knotsBaromVisibWave heightAir tempDewpointWater temp
2018-Apr-11 23:06N 45°26' E 036°42'1 6.7
2018-Apr-11 23:01N 45°26' E 036°42'3 6.7
2018-Apr-11 22:30N 45°23' E 036°40'3 6.4
2018-Apr-11 22:01N 45°21' E 036°37'4 7.6
2018-Apr-11 21:30N 45°19' E 036°32'4 6.5
2018-Apr-11 20:57N 45°16' E 036°29'3 5.8
2018-Apr-11 20:30N 45°14' E 036°29'2 3.8
2018-Apr-11 20:00N 45°12' E 036°30'1 1.3
2018-Apr-11 19:28N 45°11' E 036°31'0 0.0
2018-Apr-11 17:13N 45°11' E 036°31'0 0.1
2018-Apr-11 16:55N 45°11' E 036°31'0 0.1
2018-Apr-11 15:37N 45°11' E 036°31'0 0.0
2018-Apr-11 15:16N 45°11' E 036°31'0 0.0
2018-Apr-11 14:55N 45°11' E 036°31'0 0.0
2018-Apr-11 14:28N 45°11' E 036°31'0 0.0
2018-Apr-11 13:58N 45°11' E 036°31'0 0.0
2018-Apr-11 13:25N 45°11' E 036°31'0 0.0
2018-Apr-11 12:58N 45°11' E 036°31'0 0.0
2018-Apr-11 12:25N 45°11' E 036°31'0 0.0
2018-Apr-11 07:22N 45°11' E 036°31'16 6.3
2018-Apr-11 04:52N 44°56' E 036°32'  

Dump ship's entire track history